sensor_id;sensor_type;location;lat;lon;timestamp;P1;durP1;ratioP1;P2;durP2;ratioP2
39860;SDS011;25529;49.346;20.886;2023-07-31T04:50:33;10.60;;;4.63;;
39860;SDS011;25529;49.346;20.886;2023-07-31T05:08:00;19.88;;;6.65;;
39860;SDS011;25529;49.346;20.886;2023-07-31T07:28:36;27.80;;;14.40;;
39860;SDS011;25529;49.346;20.886;2023-07-31T07:37:04;36.78;;;19.88;;
39860;SDS011;25529;49.346;20.886;2023-07-31T07:39:32;25.80;;;12.45;;
39860;SDS011;25529;49.346;20.886;2023-07-31T07:47:24;22.20;;;8.55;;
39860;SDS011;25529;49.346;20.886;2023-07-31T07:49:59;19.90;;;8.10;;
39860;SDS011;25529;49.346;20.886;2023-07-31T07:52:53;21.48;;;8.27;;
39860;SDS011;25529;49.346;20.886;2023-07-31T08:03:50;15.43;;;4.97;;
39860;SDS011;25529;49.346;20.886;2023-07-31T08:06:18;17.15;;;6.35;;
39860;SDS011;25529;49.346;20.886;2023-07-31T08:24:31;12.20;;;4.97;;
39860;SDS011;25529;49.346;20.886;2023-07-31T08:47:28;12.32;;;4.97;;
39860;SDS011;25529;49.346;20.886;2023-07-31T09:17:02;11.30;;;4.97;;
39860;SDS011;25529;49.346;20.886;2023-07-31T09:19:32;13.37;;;5.03;;
39860;SDS011;25529;49.346;20.886;2023-07-31T09:21:59;12.67;;;4.87;;
39860;SDS011;25529;49.346;20.886;2023-07-31T09:24:34;11.57;;;5.00;;
39860;SDS011;25529;49.346;20.886;2023-07-31T09:54:36;11.25;;;5.00;;
39860;SDS011;25529;49.346;20.886;2023-07-31T09:57:43;15.98;;;5.45;;
39860;SDS011;25529;49.346;20.886;2023-07-31T10:00:14;11.60;;;5.13;;
39860;SDS011;25529;49.346;20.886;2023-07-31T10:03:09;10.57;;;4.90;;
39860;SDS011;25529;49.346;20.886;2023-07-31T10:11:46;13.50;;;5.32;;
39860;SDS011;25529;49.346;20.886;2023-07-31T10:19:38;21.70;;;8.95;;
39860;SDS011;25529;49.346;20.886;2023-07-31T20:36:34;21.10;;;8.80;;
39860;SDS011;25529;49.346;20.886;2023-07-31T20:46:53;22.58;;;9.18;;
39860;SDS011;25529;49.346;20.886;2023-07-31T20:49:18;31.25;;;9.45;;
39860;SDS011;25529;49.346;20.886;2023-07-31T20:56:54;21.48;;;8.88;;
39860;SDS011;25529;49.346;20.886;2023-07-31T21:01:57;23.08;;;10.40;;
39860;SDS011;25529;49.346;20.886;2023-07-31T21:07:08;23.17;;;9.07;;
39860;SDS011;25529;49.346;20.886;2023-07-31T21:17:52;22.58;;;9.55;;
39860;SDS011;25529;49.346;20.886;2023-07-31T21:30:48;22.38;;;9.68;;
39860;SDS011;25529;49.346;20.886;2023-07-31T21:35:56;23.80;;;9.53;;
39860;SDS011;25529;49.346;20.886;2023-07-31T21:43:27;25.58;;;9.27;;
39860;SDS011;25529;49.346;20.886;2023-07-31T21:48:33;23.50;;;8.88;;
39860;SDS011;25529;49.346;20.886;2023-07-31T21:51:01;24.00;;;8.10;;
39860;SDS011;25529;49.346;20.886;2023-07-31T21:53:47;19.67;;;7.80;;
39860;SDS011;25529;49.346;20.886;2023-07-31T22:11:50;22.95;;;8.73;;
39860;SDS011;25529;49.346;20.886;2023-07-31T22:14:16;24.33;;;8.30;;
39860;SDS011;25529;49.346;20.886;2023-07-31T22:16:41;20.52;;;8.13;;
39860;SDS011;25529;49.346;20.886;2023-07-31T22:19:07;20.38;;;8.40;;
39860;SDS011;25529;49.346;20.886;2023-07-31T22:21:32;21.08;;;8.35;;
39860;SDS011;25529;49.346;20.886;2023-07-31T22:23:57;20.58;;;8.52;;
39860;SDS011;25529;49.346;20.886;2023-07-31T22:26:29;23.50;;;9.18;;
39860;SDS011;25529;49.346;20.886;2023-07-31T22:28:54;23.85;;;8.90;;
39860;SDS011;25529;49.346;20.886;2023-07-31T22:31:19;25.50;;;8.95;;
39860;SDS011;25529;49.346;20.886;2023-07-31T22:33:45;23.58;;;8.32;;
39860;SDS011;25529;49.346;20.886;2023-07-31T22:36:10;22.50;;;8.32;;
39860;SDS011;25529;49.346;20.886;2023-07-31T22:38:36;22.55;;;8.82;;
39860;SDS011;25529;49.346;20.886;2023-07-31T22:41:01;24.92;;;9.15;;
39860;SDS011;25529;49.346;20.886;2023-07-31T22:43:27;23.75;;;8.73;;
39860;SDS011;25529;49.346;20.886;2023-07-31T22:45:52;21.83;;;8.80;;
39860;SDS011;25529;49.346;20.886;2023-07-31T22:48:17;22.38;;;8.70;;
39860;SDS011;25529;49.346;20.886;2023-07-31T22:50:54;24.58;;;9.02;;
39860;SDS011;25529;49.346;20.886;2023-07-31T22:53:19;25.65;;;9.88;;
39860;SDS011;25529;49.346;20.886;2023-07-31T22:55:44;27.02;;;9.60;;
39860;SDS011;25529;49.346;20.886;2023-07-31T22:58:10;24.67;;;9.82;;
39860;SDS011;25529;49.346;20.886;2023-07-31T23:00:35;23.83;;;10.13;;
39860;SDS011;25529;49.346;20.886;2023-07-31T23:03:01;23.45;;;9.68;;
39860;SDS011;25529;49.346;20.886;2023-07-31T23:05:26;27.65;;;9.50;;
39860;SDS011;25529;49.346;20.886;2023-07-31T23:07:52;26.92;;;9.15;;
39860;SDS011;25529;49.346;20.886;2023-07-31T23:10:17;22.98;;;9.00;;
39860;SDS011;25529;49.346;20.886;2023-07-31T23:12:42;31.92;;;9.48;;
39860;SDS011;25529;49.346;20.886;2023-07-31T23:15:08;24.25;;;9.05;;
39860;SDS011;25529;49.346;20.886;2023-07-31T23:17:33;27.08;;;8.98;;
39860;SDS011;25529;49.346;20.886;2023-07-31T23:19:59;22.50;;;8.27;;
39860;SDS011;25529;49.346;20.886;2023-07-31T23:22:24;22.20;;;8.82;;
39860;SDS011;25529;49.346;20.886;2023-07-31T23:24:51;22.83;;;9.02;;
39860;SDS011;25529;49.346;20.886;2023-07-31T23:27:16;27.40;;;8.90;;
39860;SDS011;25529;49.346;20.886;2023-07-31T23:29:42;24.30;;;8.85;;
39860;SDS011;25529;49.346;20.886;2023-07-31T23:32:07;23.70;;;8.95;;
39860;SDS011;25529;49.346;20.886;2023-07-31T23:34:32;21.98;;;8.27;;
39860;SDS011;25529;49.346;20.886;2023-07-31T23:36:58;23.25;;;8.35;;
39860;SDS011;25529;49.346;20.886;2023-07-31T23:39:23;24.75;;;8.88;;
39860;SDS011;25529;49.346;20.886;2023-07-31T23:41:48;25.25;;;8.77;;
39860;SDS011;25529;49.346;20.886;2023-07-31T23:44:14;22.50;;;8.80;;
39860;SDS011;25529;49.346;20.886;2023-07-31T23:46:39;22.67;;;8.88;;
39860;SDS011;25529;49.346;20.886;2023-07-31T23:49:12;20.20;;;8.32;;
39860;SDS011;25529;49.346;20.886;2023-07-31T23:51:37;21.35;;;8.30;;
39860;SDS011;25529;49.346;20.886;2023-07-31T23:54:03;23.90;;;9.00;;
39860;SDS011;25529;49.346;20.886;2023-07-31T23:56:28;23.27;;;8.45;;
39860;SDS011;25529;49.346;20.886;2023-07-31T23:58:53;23.88;;;8.43;;
